createdAt,value
2023-01-13T01:08:10.023Z,99518.41
2023-01-13T01:18:51.561Z,99560.16
2023-01-13T02:13:26.828Z,99490.72
2023-01-13T05:30:59.035Z,99512.47
2023-01-13T13:13:27.620Z,99771.81
2023-01-13T13:16:36.966Z,99717.63
2023-01-13T13:19:46.704Z,99764.41
2023-01-13T13:22:38.434Z,99778.56
2023-01-13T13:25:29.058Z,99756.59
2023-01-13T13:28:35.106Z,99729.19
2023-01-13T13:31:24.193Z,99753.03
2023-01-13T13:34:12.741Z,99786.53
2023-01-13T13:37:02.084Z,99814.66
2023-01-13T13:39:53.126Z,99833.41
2023-01-13T13:42:43.984Z,99861.22
2023-01-13T15:37:32.200Z,99939.13
2023-01-13T15:40:13.822Z,99951.84
2023-01-13T15:43:03.611Z,99975.09
2023-01-13T15:45:54.056Z,99980.00
2023-01-13T15:48:33.698Z,100000.03
2023-01-13T15:51:20.180Z,99992.13
2023-01-13T15:54:14.464Z,99984.81
2023-01-13T15:56:44.058Z,100000.47
2023-01-13T15:59:22.896Z,100005.53
2023-01-13T16:01:55.618Z,100010.47
2023-01-13T16:04:24.837Z,100017.56
2023-01-13T16:06:54.211Z,99994.50
2023-01-13T16:09:26.266Z,100010.13
2023-01-13T16:11:55.744Z,100016.94
2023-01-13T16:14:27.299Z,99973.75
2023-01-13T16:17:00.134Z,100030.13
2023-01-13T16:19:31.440Z,99991.53
2023-01-13T16:22:00.702Z,100037.22
2023-01-13T16:24:32.267Z,100044.09
2023-01-13T16:27:28.743Z,99999.25
2023-01-13T16:29:57.418Z,100032.63
2023-01-13T16:32:26.093Z,100059.44
2023-01-13T16:34:57.349Z,100050.50
2023-01-13T16:37:29.255Z,100056.97
2023-01-13T16:39:59.158Z,100059.19
2023-01-13T16:42:28.811Z,100042.94
2023-01-13T16:45:00.104Z,100017.91
2023-01-13T16:47:29.599Z,100085.97
2023-01-13T16:50:00.697Z,100096.34
2023-01-13T16:52:32.464Z,100087.22
2023-01-13T16:55:03.248Z,100075.16
